CheckWX is a tool to help pilots better visualize weather data.  It is not intended as a substitute for an official pre-flight weather briefing.

21:13:44 UTC

KMLI METAR
Quad City International Airport
Moline, Illinois, USA
Current

22 mins ago

KMLI 192052Z 11007KT 10SM CLR 26/21 A3002 RMK AO2 SLP161 T02560206 58020
Observed
Sep-19 @ 20:52 UTC
Wind
  • 110° at 7 KTS
Visibility
10 SM
Flight Rules
VFR
Cloud Levels
  • Clear skies
Temperature
26°C / 79°F
Dewpoint
21°C / 70°F
Humidity
74%
Altimeter
30.02" Hg
Pressure
1016.62 hPa
Previous

1 hour ago

KMLI 191952Z 11008KT 10SM CLR 25/19 A3004 RMK AO2 SLP167 T02500194
Observed
Sep-19 @ 19:52 UTC
Wind
  • 110° at 8 KTS
Visibility
10 SM
Flight Rules
VFR
Cloud Levels
  • Clear skies
Temperature
25°C / 77°F
Dewpoint
19°C / 66°F
Humidity
69%
Altimeter
30.04" Hg
Pressure
1017.32 hPa
Previous

2 hours ago

KMLI 191852Z 09008KT 10SM CLR 24/19 A3006 RMK AO2 SLP175 T02440189
Observed
Sep-19 @ 18:52 UTC
Wind
  • 090° at 8 KTS
Visibility
10 SM
Flight Rules
VFR
Cloud Levels
  • Clear skies
Temperature
24°C / 75°F
Dewpoint
19°C / 66°F
Humidity
74%
Altimeter
30.06" Hg
Pressure
1017.92 hPa